sensor_id;sensor_type;location;lat;lon;timestamp;P1;durP1;ratioP1;P2;durP2;ratioP2
6209;SDS011;3138;52.550;13.148;2022-11-15T00:01:32;110.30;;;49.03;;
6209;SDS011;3138;52.550;13.148;2022-11-15T00:03:58;87.07;;;46.73;;
6209;SDS011;3138;52.550;13.148;2022-11-15T00:06:27;97.03;;;49.00;;
6209;SDS011;3138;52.550;13.148;2022-11-15T00:08:53;94.43;;;49.50;;
6209;SDS011;3138;52.550;13.148;2022-11-15T00:11:20;84.47;;;47.00;;
6209;SDS011;3138;52.550;13.148;2022-11-15T00:13:47;92.30;;;47.37;;
6209;SDS011;3138;52.550;13.148;2022-11-15T00:16:14;99.27;;;49.50;;
6209;SDS011;3138;52.550;13.148;2022-11-15T00:18:41;90.80;;;45.47;;
6209;SDS011;3138;52.550;13.148;2022-11-15T00:21:09;86.57;;;48.53;;
6209;SDS011;3138;52.550;13.148;2022-11-15T00:23:39;88.03;;;45.90;;
6209;SDS011;3138;52.550;13.148;2022-11-15T00:26:06;87.07;;;45.17;;
6209;SDS011;3138;52.550;13.148;2022-11-15T00:28:33;82.90;;;45.00;;
6209;SDS011;3138;52.550;13.148;2022-11-15T00:31:00;87.17;;;45.30;;
6209;SDS011;3138;52.550;13.148;2022-11-15T00:33:28;92.03;;;45.83;;
6209;SDS011;3138;52.550;13.148;2022-11-15T00:35:59;97.17;;;44.23;;
6209;SDS011;3138;52.550;13.148;2022-11-15T00:38:29;86.47;;;46.50;;
6209;SDS011;3138;52.550;13.148;2022-11-15T00:40:59;111.83;;;49.20;;
6209;SDS011;3138;52.550;13.148;2022-11-15T00:43:26;78.10;;;44.70;;
6209;SDS011;3138;52.550;13.148;2022-11-15T00:45:53;94.63;;;45.53;;
6209;SDS011;3138;52.550;13.148;2022-11-15T00:48:20;83.83;;;44.60;;
6209;SDS011;3138;52.550;13.148;2022-11-15T00:50:47;85.73;;;45.50;;
6209;SDS011;3138;52.550;13.148;2022-11-15T00:53:14;107.23;;;48.80;;
6209;SDS011;3138;52.550;13.148;2022-11-15T00:55:41;85.50;;;46.57;;
6209;SDS011;3138;52.550;13.148;2022-11-15T00:58:10;75.47;;;42.67;;
6209;SDS011;3138;52.550;13.148;2022-11-15T01:00:36;90.70;;;44.57;;
6209;SDS011;3138;52.550;13.148;2022-11-15T01:03:03;91.33;;;44.23;;
6209;SDS011;3138;52.550;13.148;2022-11-15T01:05:30;80.07;;;44.37;;
6209;SDS011;3138;52.550;13.148;2022-11-15T01:07:57;98.80;;;44.90;;
6209;SDS011;3138;52.550;13.148;2022-11-15T01:10:24;94.17;;;45.70;;
6209;SDS011;3138;52.550;13.148;2022-11-15T01:12:51;83.87;;;46.37;;
6209;SDS011;3138;52.550;13.148;2022-11-15T01:15:19;97.03;;;47.17;;
6209;SDS011;3138;52.550;13.148;2022-11-15T01:17:46;89.07;;;45.93;;
6209;SDS011;3138;52.550;13.148;2022-11-15T01:20:13;93.03;;;46.93;;
6209;SDS011;3138;52.550;13.148;2022-11-15T01:22:40;97.10;;;46.43;;
6209;SDS011;3138;52.550;13.148;2022-11-15T01:25:07;83.47;;;46.70;;
6209;SDS011;3138;52.550;13.148;2022-11-15T01:27:33;84.53;;;44.73;;
6209;SDS011;3138;52.550;13.148;2022-11-15T01:30:00;87.90;;;45.93;;
6209;SDS011;3138;52.550;13.148;2022-11-15T01:32:28;90.60;;;47.00;;
6209;SDS011;3138;52.550;13.148;2022-11-15T01:34:55;99.77;;;48.03;;
6209;SDS011;3138;52.550;13.148;2022-11-15T01:37:22;93.23;;;47.17;;
6209;SDS011;3138;52.550;13.148;2022-11-15T01:39:49;99.17;;;49.40;;
6209;SDS011;3138;52.550;13.148;2022-11-15T01:42:16;112.70;;;49.00;;
6209;SDS011;3138;52.550;13.148;2022-11-15T01:44:45;107.60;;;50.83;;
6209;SDS011;3138;52.550;13.148;2022-11-15T01:47:14;96.70;;;48.60;;
6209;SDS011;3138;52.550;13.148;2022-11-15T01:49:47;100.67;;;50.80;;
6209;SDS011;3138;52.550;13.148;2022-11-15T01:52:19;94.23;;;47.50;;
6209;SDS011;3138;52.550;13.148;2022-11-15T01:54:48;94.87;;;48.00;;
6209;SDS011;3138;52.550;13.148;2022-11-15T01:57:19;86.07;;;45.60;;
6209;SDS011;3138;52.550;13.148;2022-11-15T01:59:46;91.80;;;50.03;;
6209;SDS011;3138;52.550;13.148;2022-11-15T02:02:13;96.80;;;49.23;;
6209;SDS011;3138;52.550;13.148;2022-11-15T02:04:41;98.53;;;48.47;;
6209;SDS011;3138;52.550;13.148;2022-11-15T02:07:11;99.30;;;49.27;;
6209;SDS011;3138;52.550;13.148;2022-11-15T02:09:41;104.17;;;50.70;;
6209;SDS011;3138;52.550;13.148;2022-11-15T02:12:08;102.10;;;46.97;;
6209;SDS011;3138;52.550;13.148;2022-11-15T02:14:37;105.13;;;50.37;;
6209;SDS011;3138;52.550;13.148;2022-11-15T02:17:08;95.27;;;48.40;;
6209;SDS011;3138;52.550;13.148;2022-11-15T02:19:54;103.70;;;49.63;;
6209;SDS011;3138;52.550;13.148;2022-11-15T02:22:49;96.20;;;48.90;;
6209;SDS011;3138;52.550;13.148;2022-11-15T02:25:36;99.40;;;48.63;;
6209;SDS011;3138;52.550;13.148;2022-11-15T02:28:09;89.97;;;46.83;;
6209;SDS011;3138;52.550;13.148;2022-11-15T02:31:04;99.83;;;48.90;;
6209;SDS011;3138;52.550;13.148;2022-11-15T02:33:38;100.70;;;48.27;;
6209;SDS011;3138;52.550;13.148;2022-11-15T02:36:15;90.00;;;46.50;;
6209;SDS011;3138;52.550;13.148;2022-11-15T02:38:52;95.00;;;48.37;;
6209;SDS011;3138;52.550;13.148;2022-11-15T02:41:25;103.53;;;48.37;;
6209;SDS011;3138;52.550;13.148;2022-11-15T02:43:58;100.43;;;47.67;;
6209;SDS011;3138;52.550;13.148;2022-11-15T02:46:31;90.00;;;45.30;;
6209;SDS011;3138;52.550;13.148;2022-11-15T02:49:18;94.67;;;48.10;;
6209;SDS011;3138;52.550;13.148;2022-11-15T02:51:46;87.67;;;47.30;;
6209;SDS011;3138;52.550;13.148;2022-11-15T02:54:17;88.47;;;45.50;;
6209;SDS011;3138;52.550;13.148;2022-11-15T02:56:47;89.67;;;46.00;;
6209;SDS011;3138;52.550;13.148;2022-11-15T03:02:44;95.40;;;45.70;;
6209;SDS011;3138;52.550;13.148;2022-11-15T03:05:29;98.03;;;43.83;;
6209;SDS011;3138;52.550;13.148;2022-11-15T03:08:05;103.47;;;46.87;;
6209;SDS011;3138;52.550;13.148;2022-11-15T03:10:40;95.93;;;44.17;;
6209;SDS011;3138;52.550;13.148;2022-11-15T03:13:16;85.70;;;45.60;;
6209;SDS011;3138;52.550;13.148;2022-11-15T03:15:52;95.90;;;51.07;;
6209;SDS011;3138;52.550;13.148;2022-11-15T03:18:27;96.93;;;48.60;;
6209;SDS011;3138;52.550;13.148;2022-11-15T03:21:00;95.73;;;49.23;;
6209;SDS011;3138;52.550;13.148;2022-11-15T03:23:30;103.07;;;47.23;;
6209;SDS011;3138;52.550;13.148;2022-11-15T03:25:59;88.63;;;43.80;;
6209;SDS011;3138;52.550;13.148;2022-11-15T03:28:28;93.83;;;46.10;;
6209;SDS011;3138;52.550;13.148;2022-11-15T03:30:58;84.70;;;45.10;;
6209;SDS011;3138;52.550;13.148;2022-11-15T03:33:28;92.30;;;44.83;;
6209;SDS011;3138;52.550;13.148;2022-11-15T03:35:56;95.90;;;46.30;;
6209;SDS011;3138;52.550;13.148;2022-11-15T03:38:25;100.93;;;47.67;;
6209;SDS011;3138;52.550;13.148;2022-11-15T03:40:54;100.17;;;47.70;;
6209;SDS011;3138;52.550;13.148;2022-11-15T03:43:29;91.80;;;45.90;;
6209;SDS011;3138;52.550;13.148;2022-11-15T03:46:01;98.87;;;50.40;;
6209;SDS011;3138;52.550;13.148;2022-11-15T03:48:35;104.07;;;51.10;;
6209;SDS011;3138;52.550;13.148;2022-11-15T03:51:06;99.30;;;48.47;;
6209;SDS011;3138;52.550;13.148;2022-11-15T03:53:33;106.47;;;48.37;;
6209;SDS011;3138;52.550;13.148;2022-11-15T03:56:00;95.57;;;45.50;;
6209;SDS011;3138;52.550;13.148;2022-11-15T03:58:26;102.83;;;49.17;;
6209;SDS011;3138;52.550;13.148;2022-11-15T04:00:53;93.37;;;44.70;;
6209;SDS011;3138;52.550;13.148;2022-11-15T04:03:20;102.67;;;47.03;;
6209;SDS011;3138;52.550;13.148;2022-11-15T04:05:48;97.00;;;46.40;;
6209;SDS011;3138;52.550;13.148;2022-11-15T04:08:15;93.90;;;47.67;;
6209;SDS011;3138;52.550;13.148;2022-11-15T04:10:42;100.40;;;46.67;;
6209;SDS011;3138;52.550;13.148;2022-11-15T04:13:09;94.47;;;46.20;;
6209;SDS011;3138;52.550;13.148;2022-11-15T04:15:36;90.00;;;45.60;;
6209;SDS011;3138;52.550;13.148;2022-11-15T04:18:04;85.40;;;45.27;;
6209;SDS011;3138;52.550;13.148;2022-11-15T04:20:31;99.10;;;46.00;;
6209;SDS011;3138;52.550;13.148;2022-11-15T04:23:17;91.03;;;44.40;;
6209;SDS011;3138;52.550;13.148;2022-11-15T04:26:08;92.07;;;45.10;;
6209;SDS011;3138;52.550;13.148;2022-11-15T04:28:38;98.20;;;47.07;;
6209;SDS011;3138;52.550;13.148;2022-11-15T04:31:25;94.67;;;45.57;;
6209;SDS011;3138;52.550;13.148;2022-11-15T04:33:53;90.93;;;48.10;;
6209;SDS011;3138;52.550;13.148;2022-11-15T04:36:20;98.17;;;46.63;;
6209;SDS011;3138;52.550;13.148;2022-11-15T04:39:06;86.40;;;45.50;;
6209;SDS011;3138;52.550;13.148;2022-11-15T04:41:33;93.33;;;45.80;;
6209;SDS011;3138;52.550;13.148;2022-11-15T04:44:00;89.73;;;45.33;;
6209;SDS011;3138;52.550;13.148;2022-11-15T04:46:27;94.23;;;45.67;;
6209;SDS011;3138;52.550;13.148;2022-11-15T04:48:54;90.03;;;44.00;;
6209;SDS011;3138;52.550;13.148;2022-11-15T04:51:21;81.97;;;41.87;;
6209;SDS011;3138;52.550;13.148;2022-11-15T04:53:48;89.43;;;44.43;;
6209;SDS011;3138;52.550;13.148;2022-11-15T04:56:16;78.43;;;43.00;;
6209;SDS011;3138;52.550;13.148;2022-11-15T04:58:43;81.97;;;43.77;;
6209;SDS011;3138;52.550;13.148;2022-11-15T05:01:11;85.13;;;41.90;;
6209;SDS011;3138;52.550;13.148;2022-11-15T05:03:39;79.40;;;41.43;;
6209;SDS011;3138;52.550;13.148;2022-11-15T05:06:24;91.63;;;43.07;;
6209;SDS011;3138;52.550;13.148;2022-11-15T05:08:51;93.17;;;45.60;;
6209;SDS011;3138;52.550;13.148;2022-11-15T05:11:20;80.50;;;43.27;;
6209;SDS011;3138;52.550;13.148;2022-11-15T05:13:46;78.70;;;42.43;;
6209;SDS011;3138;52.550;13.148;2022-11-15T05:16:13;80.50;;;39.70;;
6209;SDS011;3138;52.550;13.148;2022-11-15T05:18:40;90.10;;;43.47;;
6209;SDS011;3138;52.550;13.148;2022-11-15T05:21:08;79.13;;;42.07;;
6209;SDS011;3138;52.550;13.148;2022-11-15T05:23:37;83.87;;;39.20;;
6209;SDS011;3138;52.550;13.148;2022-11-15T05:26:05;81.60;;;42.17;;
6209;SDS011;3138;52.550;13.148;2022-11-15T05:28:34;81.97;;;41.67;;
6209;SDS011;3138;52.550;13.148;2022-11-15T05:31:02;90.20;;;43.47;;
6209;SDS011;3138;52.550;13.148;2022-11-15T05:33:30;86.60;;;42.80;;
6209;SDS011;3138;52.550;13.148;2022-11-15T05:36:02;81.60;;;39.43;;
6209;SDS011;3138;52.550;13.148;2022-11-15T05:38:33;93.93;;;42.77;;
6209;SDS011;3138;52.550;13.148;2022-11-15T05:41:00;86.23;;;42.00;;
6209;SDS011;3138;52.550;13.148;2022-11-15T05:43:27;86.53;;;41.50;;
6209;SDS011;3138;52.550;13.148;2022-11-15T05:45:59;89.40;;;44.10;;
6209;SDS011;3138;52.550;13.148;2022-11-15T05:48:26;82.37;;;40.87;;
6209;SDS011;3138;52.550;13.148;2022-11-15T05:50:53;92.57;;;41.80;;
6209;SDS011;3138;52.550;13.148;2022-11-15T05:53:20;83.17;;;41.23;;
6209;SDS011;3138;52.550;13.148;2022-11-15T05:55:49;88.57;;;40.70;;
6209;SDS011;3138;52.550;13.148;2022-11-15T05:58:15;75.87;;;39.33;;
6209;SDS011;3138;52.550;13.148;2022-11-15T06:00:43;78.67;;;41.23;;
6209;SDS011;3138;52.550;13.148;2022-11-15T06:03:11;74.00;;;39.00;;
6209;SDS011;3138;52.550;13.148;2022-11-15T06:05:39;85.23;;;39.70;;
6209;SDS011;3138;52.550;13.148;2022-11-15T06:08:06;79.80;;;39.43;;
6209;SDS011;3138;52.550;13.148;2022-11-15T06:10:32;75.40;;;39.90;;
6209;SDS011;3138;52.550;13.148;2022-11-15T06:12:59;81.93;;;40.13;;
6209;SDS011;3138;52.550;13.148;2022-11-15T06:15:28;97.90;;;40.70;;
6209;SDS011;3138;52.550;13.148;2022-11-15T06:17:56;85.37;;;40.47;;
6209;SDS011;3138;52.550;13.148;2022-11-15T06:20:25;71.67;;;37.60;;
6209;SDS011;3138;52.550;13.148;2022-11-15T06:22:55;88.77;;;39.87;;
6209;SDS011;3138;52.550;13.148;2022-11-15T06:25:23;93.83;;;41.40;;
6209;SDS011;3138;52.550;13.148;2022-11-15T06:27:50;71.63;;;37.90;;
6209;SDS011;3138;52.550;13.148;2022-11-15T06:30:17;77.43;;;38.30;;
6209;SDS011;3138;52.550;13.148;2022-11-15T06:32:44;73.43;;;39.87;;
6209;SDS011;3138;52.550;13.148;2022-11-15T06:35:11;83.33;;;39.77;;
6209;SDS011;3138;52.550;13.148;2022-11-15T06:37:40;80.57;;;40.30;;
6209;SDS011;3138;52.550;13.148;2022-11-15T06:40:07;75.20;;;38.40;;
6209;SDS011;3138;52.550;13.148;2022-11-15T06:42:35;82.57;;;40.50;;
6209;SDS011;3138;52.550;13.148;2022-11-15T06:45:02;92.00;;;42.27;;
6209;SDS011;3138;52.550;13.148;2022-11-15T06:47:30;82.47;;;45.87;;
6209;SDS011;3138;52.550;13.148;2022-11-15T06:49:57;88.43;;;44.60;;
6209;SDS011;3138;52.550;13.148;2022-11-15T06:52:23;101.60;;;47.57;;
6209;SDS011;3138;52.550;13.148;2022-11-15T06:54:52;96.07;;;45.23;;
6209;SDS011;3138;52.550;13.148;2022-11-15T06:57:18;92.50;;;43.30;;
6209;SDS011;3138;52.550;13.148;2022-11-15T06:59:45;76.93;;;41.47;;
6209;SDS011;3138;52.550;13.148;2022-11-15T07:02:12;82.80;;;41.60;;
6209;SDS011;3138;52.550;13.148;2022-11-15T07:04:39;102.70;;;52.57;;
6209;SDS011;3138;52.550;13.148;2022-11-15T07:07:06;179.70;;;90.57;;
6209;SDS011;3138;52.550;13.148;2022-11-15T07:09:33;166.43;;;77.33;;
6209;SDS011;3138;52.550;13.148;2022-11-15T07:12:01;112.33;;;54.27;;
6209;SDS011;3138;52.550;13.148;2022-11-15T07:14:28;106.43;;;52.60;;
6209;SDS011;3138;52.550;13.148;2022-11-15T07:16:55;85.50;;;44.10;;
6209;SDS011;3138;52.550;13.148;2022-11-15T07:19:22;94.00;;;44.97;;
6209;SDS011;3138;52.550;13.148;2022-11-15T07:21:49;95.90;;;43.40;;
6209;SDS011;3138;52.550;13.148;2022-11-15T07:24:16;85.60;;;39.73;;
6209;SDS011;3138;52.550;13.148;2022-11-15T07:26:43;96.60;;;41.67;;
6209;SDS011;3138;52.550;13.148;2022-11-15T07:29:11;91.90;;;43.60;;
6209;SDS011;3138;52.550;13.148;2022-11-15T07:31:38;91.77;;;44.50;;
6209;SDS011;3138;52.550;13.148;2022-11-15T07:34:05;95.37;;;44.10;;
6209;SDS011;3138;52.550;13.148;2022-11-15T07:36:31;80.20;;;42.20;;
6209;SDS011;3138;52.550;13.148;2022-11-15T07:38:58;87.30;;;40.30;;
6209;SDS011;3138;52.550;13.148;2022-11-15T07:41:25;106.17;;;42.80;;
6209;SDS011;3138;52.550;13.148;2022-11-15T07:43:52;102.00;;;42.33;;
6209;SDS011;3138;52.550;13.148;2022-11-15T07:46:21;76.93;;;39.27;;
6209;SDS011;3138;52.550;13.148;2022-11-15T07:48:47;92.33;;;44.33;;
6209;SDS011;3138;52.550;13.148;2022-11-15T07:51:15;84.70;;;42.37;;
6209;SDS011;3138;52.550;13.148;2022-11-15T07:53:43;90.67;;;41.07;;
6209;SDS011;3138;52.550;13.148;2022-11-15T07:56:10;85.37;;;44.10;;
6209;SDS011;3138;52.550;13.148;2022-11-15T07:58:37;85.50;;;43.20;;
6209;SDS011;3138;52.550;13.148;2022-11-15T08:01:04;74.73;;;40.13;;
6209;SDS011;3138;52.550;13.148;2022-11-15T08:03:34;75.33;;;39.00;;
6209;SDS011;3138;52.550;13.148;2022-11-15T08:06:02;75.20;;;41.33;;
6209;SDS011;3138;52.550;13.148;2022-11-15T08:08:29;84.30;;;41.87;;
6209;SDS011;3138;52.550;13.148;2022-11-15T08:10:57;83.63;;;41.27;;
6209;SDS011;3138;52.550;13.148;2022-11-15T08:13:24;75.37;;;40.17;;
6209;SDS011;3138;52.550;13.148;2022-11-15T08:15:51;71.23;;;40.27;;
6209;SDS011;3138;52.550;13.148;2022-11-15T08:18:18;74.13;;;42.23;;
6209;SDS011;3138;52.550;13.148;2022-11-15T08:20:46;72.63;;;37.97;;
6209;SDS011;3138;52.550;13.148;2022-11-15T08:23:13;73.37;;;39.90;;
6209;SDS011;3138;52.550;13.148;2022-11-15T08:25:40;63.30;;;36.73;;
6209;SDS011;3138;52.550;13.148;2022-11-15T08:28:07;72.83;;;39.57;;
6209;SDS011;3138;52.550;13.148;2022-11-15T08:30:36;68.20;;;37.57;;
6209;SDS011;3138;52.550;13.148;2022-11-15T08:33:09;65.30;;;37.03;;
6209;SDS011;3138;52.550;13.148;2022-11-15T08:35:37;71.93;;;36.97;;
6209;SDS011;3138;52.550;13.148;2022-11-15T08:38:06;68.00;;;35.00;;
6209;SDS011;3138;52.550;13.148;2022-11-15T08:40:32;56.33;;;35.47;;
6209;SDS011;3138;52.550;13.148;2022-11-15T08:42:59;62.73;;;35.37;;
6209;SDS011;3138;52.550;13.148;2022-11-15T08:45:27;64.30;;;37.20;;
6209;SDS011;3138;52.550;13.148;2022-11-15T08:47:54;55.10;;;34.13;;
6209;SDS011;3138;52.550;13.148;2022-11-15T08:50:21;60.90;;;35.77;;
6209;SDS011;3138;52.550;13.148;2022-11-15T08:52:48;56.53;;;30.90;;
6209;SDS011;3138;52.550;13.148;2022-11-15T08:55:17;73.53;;;35.60;;
6209;SDS011;3138;52.550;13.148;2022-11-15T08:57:44;54.43;;;32.90;;
6209;SDS011;3138;52.550;13.148;2022-11-15T09:00:11;58.30;;;32.57;;
6209;SDS011;3138;52.550;13.148;2022-11-15T09:02:39;61.33;;;33.50;;
6209;SDS011;3138;52.550;13.148;2022-11-15T09:05:06;58.47;;;32.97;;
6209;SDS011;3138;52.550;13.148;2022-11-15T09:07:34;50.40;;;29.80;;
6209;SDS011;3138;52.550;13.148;2022-11-15T09:10:01;56.70;;;32.90;;
6209;SDS011;3138;52.550;13.148;2022-11-15T09:12:29;62.07;;;34.03;;
6209;SDS011;3138;52.550;13.148;2022-11-15T09:14:56;54.53;;;31.77;;
6209;SDS011;3138;52.550;13.148;2022-11-15T09:17:23;62.33;;;27.83;;
6209;SDS011;3138;52.550;13.148;2022-11-15T09:19:50;58.37;;;30.50;;
6209;SDS011;3138;52.550;13.148;2022-11-15T09:22:17;56.07;;;35.80;;
6209;SDS011;3138;52.550;13.148;2022-11-15T09:24:44;53.97;;;31.57;;
6209;SDS011;3138;52.550;13.148;2022-11-15T09:27:11;51.23;;;26.03;;
6209;SDS011;3138;52.550;13.148;2022-11-15T09:29:39;44.13;;;27.33;;
6209;SDS011;3138;52.550;13.148;2022-11-15T09:32:06;40.90;;;24.90;;
6209;SDS011;3138;52.550;13.148;2022-11-15T09:34:33;52.00;;;28.40;;
6209;SDS011;3138;52.550;13.148;2022-11-15T09:37:00;43.30;;;27.17;;
6209;SDS011;3138;52.550;13.148;2022-11-15T09:39:27;46.00;;;25.00;;
6209;SDS011;3138;52.550;13.148;2022-11-15T09:41:58;53.37;;;26.80;;
6209;SDS011;3138;52.550;13.148;2022-11-15T09:44:50;35.90;;;23.63;;
6209;SDS011;3138;52.550;13.148;2022-11-15T09:47:33;40.87;;;25.60;;
6209;SDS011;3138;52.550;13.148;2022-11-15T09:50:09;41.50;;;24.80;;
6209;SDS011;3138;52.550;13.148;2022-11-15T09:52:37;36.70;;;24.23;;
6209;SDS011;3138;52.550;13.148;2022-11-15T09:55:08;43.90;;;24.70;;
6209;SDS011;3138;52.550;13.148;2022-11-15T09:57:39;42.30;;;24.00;;
6209;SDS011;3138;52.550;13.148;2022-11-15T10:00:15;41.07;;;24.27;;
6209;SDS011;3138;52.550;13.148;2022-11-15T10:02:49;37.60;;;21.93;;
6209;SDS011;3138;52.550;13.148;2022-11-15T10:05:35;36.60;;;22.70;;
6209;SDS011;3138;52.550;13.148;2022-11-15T10:08:06;36.53;;;23.90;;
6209;SDS011;3138;52.550;13.148;2022-11-15T10:10:47;42.33;;;24.70;;
6209;SDS011;3138;52.550;13.148;2022-11-15T10:13:25;39.67;;;23.70;;
6209;SDS011;3138;52.550;13.148;2022-11-15T10:15:54;35.40;;;23.73;;
6209;SDS011;3138;52.550;13.148;2022-11-15T10:18:31;31.33;;;21.13;;
6209;SDS011;3138;52.550;13.148;2022-11-15T10:21:02;40.90;;;24.40;;
6209;SDS011;3138;52.550;13.148;2022-11-15T10:23:40;31.17;;;21.43;;
6209;SDS011;3138;52.550;13.148;2022-11-15T10:26:07;38.23;;;22.60;;
6209;SDS011;3138;52.550;13.148;2022-11-15T10:28:37;81.80;;;51.13;;
6209;SDS011;3138;52.550;13.148;2022-11-15T10:31:20;37.67;;;24.13;;
6209;SDS011;3138;52.550;13.148;2022-11-15T10:33:49;68.37;;;36.80;;
6209;SDS011;3138;52.550;13.148;2022-11-15T10:36:17;49.33;;;27.03;;
6209;SDS011;3138;52.550;13.148;2022-11-15T10:38:57;30.17;;;19.77;;
6209;SDS011;3138;52.550;13.148;2022-11-15T10:41:32;36.43;;;21.73;;
6209;SDS011;3138;52.550;13.148;2022-11-15T10:44:23;44.40;;;22.70;;
6209;SDS011;3138;52.550;13.148;2022-11-15T10:47:05;37.40;;;21.00;;
6209;SDS011;3138;52.550;13.148;2022-11-15T10:49:52;30.80;;;19.63;;
6209;SDS011;3138;52.550;13.148;2022-11-15T10:52:21;36.83;;;21.30;;
6209;SDS011;3138;52.550;13.148;2022-11-15T10:54:50;37.53;;;20.73;;
6209;SDS011;3138;52.550;13.148;2022-11-15T10:57:20;27.43;;;18.70;;
6209;SDS011;3138;52.550;13.148;2022-11-15T10:59:53;35.37;;;21.37;;
6209;SDS011;3138;52.550;13.148;2022-11-15T11:02:30;41.47;;;21.00;;
6209;SDS011;3138;52.550;13.148;2022-11-15T11:04:59;33.10;;;19.90;;
6209;SDS011;3138;52.550;13.148;2022-11-15T11:07:28;33.30;;;22.27;;
6209;SDS011;3138;52.550;13.148;2022-11-15T11:09:57;31.90;;;20.00;;
6209;SDS011;3138;52.550;13.148;2022-11-15T11:12:29;33.03;;;19.77;;
6209;SDS011;3138;52.550;13.148;2022-11-15T11:14:57;25.50;;;18.37;;
6209;SDS011;3138;52.550;13.148;2022-11-15T11:17:30;27.73;;;18.37;;
6209;SDS011;3138;52.550;13.148;2022-11-15T11:20:03;32.87;;;20.03;;
6209;SDS011;3138;52.550;13.148;2022-11-15T11:22:38;30.23;;;20.30;;
6209;SDS011;3138;52.550;13.148;2022-11-15T11:25:19;33.10;;;22.10;;
6209;SDS011;3138;52.550;13.148;2022-11-15T11:27:57;56.83;;;31.93;;
6209;SDS011;3138;52.550;13.148;2022-11-15T11:30:34;63.27;;;38.13;;
6209;SDS011;3138;52.550;13.148;2022-11-15T11:33:12;34.97;;;20.40;;
6209;SDS011;3138;52.550;13.148;2022-11-15T11:35:45;24.97;;;17.47;;
6209;SDS011;3138;52.550;13.148;2022-11-15T11:38:32;27.87;;;19.60;;
6209;SDS011;3138;52.550;13.148;2022-11-15T11:41:08;29.37;;;19.57;;
6209;SDS011;3138;52.550;13.148;2022-11-15T11:43:45;27.30;;;19.20;;
6209;SDS011;3138;52.550;13.148;2022-11-15T11:46:24;25.93;;;18.77;;
6209;SDS011;3138;52.550;13.148;2022-11-15T11:49:04;31.77;;;19.30;;
6209;SDS011;3138;52.550;13.148;2022-11-15T11:51:37;30.83;;;20.00;;
6209;SDS011;3138;52.550;13.148;2022-11-15T11:54:10;25.90;;;17.43;;
6209;SDS011;3138;52.550;13.148;2022-11-15T11:56:41;30.70;;;18.53;;
6209;SDS011;3138;52.550;13.148;2022-11-15T11:59:12;26.27;;;16.40;;
6209;SDS011;3138;52.550;13.148;2022-11-15T12:01:45;26.50;;;17.20;;
6209;SDS011;3138;52.550;13.148;2022-11-15T12:04:14;29.10;;;18.40;;
6209;SDS011;3138;52.550;13.148;2022-11-15T12:06:46;35.43;;;20.50;;
6209;SDS011;3138;52.550;13.148;2022-11-15T12:09:17;28.73;;;18.17;;
6209;SDS011;3138;52.550;13.148;2022-11-15T12:11:51;29.87;;;16.27;;
6209;SDS011;3138;52.550;13.148;2022-11-15T12:14:25;31.23;;;18.57;;
6209;SDS011;3138;52.550;13.148;2022-11-15T12:16:55;23.00;;;17.23;;
6209;SDS011;3138;52.550;13.148;2022-11-15T12:19:25;23.83;;;16.30;;
6209;SDS011;3138;52.550;13.148;2022-11-15T12:21:54;28.77;;;16.70;;
6209;SDS011;3138;52.550;13.148;2022-11-15T12:24:26;35.33;;;18.90;;
6209;SDS011;3138;52.550;13.148;2022-11-15T12:27:00;23.40;;;16.33;;
6209;SDS011;3138;52.550;13.148;2022-11-15T12:29:32;27.33;;;18.27;;
6209;SDS011;3138;52.550;13.148;2022-11-15T12:32:02;29.23;;;19.57;;
6209;SDS011;3138;52.550;13.148;2022-11-15T12:34:42;31.40;;;18.00;;
6209;SDS011;3138;52.550;13.148;2022-11-15T12:40:21;23.80;;;18.00;;
6209;SDS011;3138;52.550;13.148;2022-11-15T12:42:57;38.13;;;18.93;;
6209;SDS011;3138;52.550;13.148;2022-11-15T12:45:27;26.50;;;17.63;;
6209;SDS011;3138;52.550;13.148;2022-11-15T12:47:56;25.27;;;18.30;;
6209;SDS011;3138;52.550;13.148;2022-11-15T12:51:04;33.70;;;17.90;;
6209;SDS011;3138;52.550;13.148;2022-11-15T12:53:31;24.53;;;16.20;;
6209;SDS011;3138;52.550;13.148;2022-11-15T12:56:16;29.23;;;17.63;;
6209;SDS011;3138;52.550;13.148;2022-11-15T12:58:47;22.53;;;16.03;;
6209;SDS011;3138;52.550;13.148;2022-11-15T13:04:27;29.00;;;18.10;;
6209;SDS011;3138;52.550;13.148;2022-11-15T13:06:58;26.57;;;16.77;;
6209;SDS011;3138;52.550;13.148;2022-11-15T13:18:34;25.10;;;17.90;;
6209;SDS011;3138;52.550;13.148;2022-11-15T13:21:04;27.90;;;18.30;;
6209;SDS011;3138;52.550;13.148;2022-11-15T13:24:03;31.47;;;19.17;;
6209;SDS011;3138;52.550;13.148;2022-11-15T13:26:31;25.63;;;18.40;;
6209;SDS011;3138;52.550;13.148;2022-11-15T13:28:58;28.63;;;19.13;;
6209;SDS011;3138;52.550;13.148;2022-11-15T13:31:27;33.70;;;20.30;;
6209;SDS011;3138;52.550;13.148;2022-11-15T13:34:01;39.03;;;19.90;;
6209;SDS011;3138;52.550;13.148;2022-11-15T13:36:30;25.23;;;17.03;;
6209;SDS011;3138;52.550;13.148;2022-11-15T13:39:00;25.73;;;17.83;;
6209;SDS011;3138;52.550;13.148;2022-11-15T13:41:31;27.20;;;19.00;;
6209;SDS011;3138;52.550;13.148;2022-11-15T13:43:59;43.90;;;19.97;;
6209;SDS011;3138;52.550;13.148;2022-11-15T13:46:27;38.47;;;19.70;;
6209;SDS011;3138;52.550;13.148;2022-11-15T13:48:57;48.10;;;31.10;;
6209;SDS011;3138;52.550;13.148;2022-11-15T13:51:30;32.47;;;19.80;;
6209;SDS011;3138;52.550;13.148;2022-11-15T13:54:02;37.90;;;20.50;;
6209;SDS011;3138;52.550;13.148;2022-11-15T13:56:35;30.57;;;19.90;;
6209;SDS011;3138;52.550;13.148;2022-11-15T13:59:08;38.53;;;21.50;;
6209;SDS011;3138;52.550;13.148;2022-11-15T14:01:35;29.60;;;19.80;;
6209;SDS011;3138;52.550;13.148;2022-11-15T14:04:03;33.53;;;21.63;;
6209;SDS011;3138;52.550;13.148;2022-11-15T14:06:30;31.93;;;20.63;;
6209;SDS011;3138;52.550;13.148;2022-11-15T14:09:02;43.10;;;21.70;;
6209;SDS011;3138;52.550;13.148;2022-11-15T14:11:50;31.27;;;20.67;;
6209;SDS011;3138;52.550;13.148;2022-11-15T14:14:19;41.40;;;23.70;;
6209;SDS011;3138;52.550;13.148;2022-11-15T14:16:48;42.30;;;24.83;;
6209;SDS011;3138;52.550;13.148;2022-11-15T14:19:33;38.53;;;23.50;;
6209;SDS011;3138;52.550;13.148;2022-11-15T14:22:07;37.03;;;21.80;;
6209;SDS011;3138;52.550;13.148;2022-11-15T14:24:47;36.87;;;20.20;;
6209;SDS011;3138;52.550;13.148;2022-11-15T14:27:30;40.07;;;21.90;;
6209;SDS011;3138;52.550;13.148;2022-11-15T14:29:58;36.27;;;19.93;;
6209;SDS011;3138;52.550;13.148;2022-11-15T14:32:26;42.03;;;21.23;;
6209;SDS011;3138;52.550;13.148;2022-11-15T14:34:55;44.80;;;20.27;;
6209;SDS011;3138;52.550;13.148;2022-11-15T14:37:23;27.27;;;18.13;;
6209;SDS011;3138;52.550;13.148;2022-11-15T14:39:52;55.77;;;19.60;;
6209;SDS011;3138;52.550;13.148;2022-11-15T14:42:20;33.83;;;20.50;;
6209;SDS011;3138;52.550;13.148;2022-11-15T14:44:51;30.53;;;19.40;;
6209;SDS011;3138;52.550;13.148;2022-11-15T14:47:18;36.90;;;21.13;;
6209;SDS011;3138;52.550;13.148;2022-11-15T14:49:45;46.87;;;24.10;;
6209;SDS011;3138;52.550;13.148;2022-11-15T14:52:23;45.23;;;23.33;;
6209;SDS011;3138;52.550;13.148;2022-11-15T14:54:53;32.10;;;20.33;;
6209;SDS011;3138;52.550;13.148;2022-11-15T14:57:21;35.97;;;22.13;;
6209;SDS011;3138;52.550;13.148;2022-11-15T14:59:48;35.63;;;22.83;;
6209;SDS011;3138;52.550;13.148;2022-11-15T15:02:18;46.60;;;22.77;;
6209;SDS011;3138;52.550;13.148;2022-11-15T15:04:46;52.63;;;21.90;;
6209;SDS011;3138;52.550;13.148;2022-11-15T15:07:13;48.83;;;21.93;;
6209;SDS011;3138;52.550;13.148;2022-11-15T15:09:40;41.57;;;22.60;;
6209;SDS011;3138;52.550;13.148;2022-11-15T15:12:11;49.30;;;24.13;;